createdAt,value
2023-04-02T00:00:33.699Z,765.20
2023-04-02T00:01:33.673Z,739.70
2023-04-02T00:02:33.702Z,762.40
2023-04-02T00:03:33.691Z,746.90
2023-04-02T00:04:33.795Z,732.70
2023-04-02T00:05:33.831Z,753.50
2023-04-02T00:06:33.620Z,749.00
2023-04-02T00:07:33.596Z,739.90
2023-04-02T00:08:33.601Z,757.00
2023-04-02T00:09:33.673Z,759.90
2023-04-02T00:10:33.549Z,755.30
2023-04-02T00:11:33.551Z,757.10
2023-04-02T00:12:33.620Z,766.50
2023-04-02T00:13:33.555Z,766.80
2023-04-02T00:14:33.612Z,767.10
2023-04-02T00:15:33.813Z,779.40
2023-04-02T00:16:33.544Z,766.10
2023-04-02T00:17:33.486Z,788.60
2023-04-02T00:18:33.570Z,784.10
2023-04-02T00:19:33.502Z,782.60
2023-04-02T00:20:33.440Z,784.80
2023-04-02T00:21:33.434Z,786.30
2023-04-02T00:22:33.405Z,788.00
2023-04-02T00:23:33.413Z,774.70
2023-04-02T00:24:33.445Z,771.00
2023-04-02T00:25:33.571Z,771.00
2023-04-02T00:26:33.386Z,783.70
2023-04-02T00:27:33.393Z,779.80
2023-04-02T00:28:33.350Z,783.50
2023-04-02T00:29:33.387Z,784.00
2023-04-02T00:30:33.334Z,777.10
2023-04-02T00:31:33.345Z,760.10
2023-04-02T00:32:33.356Z,768.20
2023-04-02T00:33:33.279Z,763.50
2023-04-02T00:34:33.322Z,766.00
2023-04-02T00:35:33.572Z,768.10
2023-04-02T00:36:33.277Z,765.30
2023-04-02T00:37:33.263Z,762.70
2023-04-02T00:38:33.232Z,760.30
2023-04-02T00:39:33.280Z,767.60
2023-04-02T00:40:33.240Z,844.00
2023-04-02T00:41:33.217Z,760.10
2023-04-02T00:42:33.188Z,760.40
2023-04-02T00:43:33.176Z,775.80
2023-04-02T00:44:33.197Z,803.50
2023-04-02T00:45:33.461Z,845.40
2023-04-02T00:46:33.149Z,841.30
2023-04-02T00:47:33.166Z,845.10
2023-04-02T00:48:33.115Z,859.30
2023-04-02T00:49:33.142Z,843.50
2023-04-02T00:50:33.109Z,773.50
2023-04-02T00:51:33.090Z,766.80
2023-04-02T00:52:33.080Z,775.10
2023-04-02T00:53:33.051Z,791.40
2023-04-02T00:54:33.090Z,830.60
2023-04-02T00:55:33.232Z,642.00
2023-04-02T00:56:33.021Z,75.90
2023-04-02T00:57:33.087Z,698.20
2023-04-02T00:58:33.001Z,854.60
2023-04-02T00:59:33.027Z,830.10
2023-04-02T01:00:32.957Z,701.60
2023-04-02T01:01:33.029Z,686.40
2023-04-02T01:02:33.066Z,716.00
2023-04-02T01:03:33.139Z,712.40
2023-04-02T01:04:32.969Z,703.60
2023-04-02T01:05:33.189Z,707.70
2023-04-02T01:06:32.904Z,705.70
2023-04-02T01:07:32.905Z,675.20
2023-04-02T01:08:32.883Z,675.70
2023-04-02T01:09:32.942Z,674.10
2023-04-02T01:10:32.865Z,687.10
2023-04-02T01:11:32.841Z,683.10
2023-04-02T01:12:32.829Z,693.70
2023-04-02T01:13:32.825Z,719.10
2023-04-02T01:14:32.940Z,704.80
2023-04-02T01:15:32.946Z,676.60
2023-04-02T01:16:32.951Z,696.90
2023-04-02T01:17:32.802Z,694.00
2023-04-02T01:18:32.784Z,737.20
2023-04-02T01:19:32.799Z,713.60
2023-04-02T01:20:32.737Z,741.30
2023-04-02T01:21:32.742Z,751.40
2023-04-02T01:22:32.700Z,700.30
2023-04-02T01:23:32.699Z,724.50
2023-04-02T01:24:32.730Z,752.20
2023-04-02T01:25:32.696Z,680.50
2023-04-02T01:26:32.778Z,689.90
2023-04-02T01:27:32.647Z,670.80
2023-04-02T01:28:32.664Z,722.50
2023-04-02T01:29:32.674Z,698.20
2023-04-02T01:30:32.624Z,699.80
2023-04-02T01:31:32.661Z,740.00
2023-04-02T01:32:32.626Z,671.20
2023-04-02T01:33:32.598Z,749.80
2023-04-02T01:34:32.634Z,687.10
2023-04-02T01:35:32.778Z,701.00
2023-04-02T01:36:32.590Z,708.60
2023-04-02T01:37:32.553Z,702.60
2023-04-02T01:38:32.519Z,711.70
2023-04-02T01:39:32.563Z,710.40
2023-04-02T01:40:32.513Z,723.10
2023-04-02T01:41:32.543Z,712.10
2023-04-02T01:42:32.513Z,682.80
2023-04-02T01:43:32.499Z,732.90
2023-04-02T01:44:32.546Z,695.00
2023-04-02T01:45:32.843Z,649.90
2023-04-02T01:46:32.524Z,664.50
2023-04-02T01:47:32.478Z,664.20
2023-04-02T01:48:32.434Z,665.60
2023-04-02T01:49:32.412Z,550.70
2023-04-02T01:50:32.439Z,62.00
2023-04-02T01:51:32.375Z,798.40
2023-04-02T01:52:32.392Z,797.70
2023-04-02T01:53:32.371Z,796.70
2023-04-02T01:54:32.349Z,796.00
2023-04-02T01:55:32.592Z,752.00
2023-04-02T01:56:32.322Z,780.40
2023-04-02T01:57:32.345Z,790.10
2023-04-02T01:58:32.321Z,792.00
2023-04-02T01:59:32.311Z,777.70
2023-04-02T02:00:32.377Z,789.80
2023-04-02T02:01:32.292Z,769.60
2023-04-02T02:02:32.325Z,762.20
2023-04-02T02:03:32.250Z,765.70
2023-04-02T02:04:32.282Z,748.10
2023-04-02T02:05:32.415Z,753.10
2023-04-02T02:06:32.227Z,754.10
2023-04-02T02:07:32.215Z,757.10
2023-04-02T02:08:32.210Z,742.10
2023-04-02T02:09:32.198Z,756.40
2023-04-02T02:10:32.224Z,747.10
2023-04-02T02:11:32.172Z,746.10
2023-04-02T02:12:32.150Z,747.10
2023-04-02T02:13:32.172Z,737.00
2023-04-02T02:14:32.128Z,744.00
2023-04-02T02:15:32.181Z,751.80
2023-04-02T02:16:32.219Z,747.00
2023-04-02T02:17:32.153Z,743.00
2023-04-02T02:18:32.101Z,740.20
2023-04-02T02:19:32.075Z,751.50
2023-04-02T02:20:32.098Z,750.30
2023-04-02T02:21:32.055Z,732.30
2023-04-02T02:22:32.044Z,730.40
2023-04-02T02:23:32.025Z,733.70
2023-04-02T02:24:32.050Z,761.10
2023-04-02T02:25:32.178Z,730.60
2023-04-02T02:26:32.010Z,735.80
2023-04-02T02:27:32.031Z,728.20
2023-04-02T02:28:31.963Z,750.10
2023-04-02T02:29:31.966Z,768.60
2023-04-02T02:30:32.008Z,746.50
2023-04-02T02:31:31.965Z,748.50
2023-04-02T02:32:31.941Z,741.80
2023-04-02T02:33:31.909Z,752.60
2023-04-02T02:34:31.920Z,742.50
2023-04-02T02:35:31.952Z,719.60
2023-04-02T02:36:31.888Z,539.40
2023-04-02T02:37:31.880Z,65.20
2023-04-02T02:38:31.876Z,801.30
2023-04-02T02:39:31.857Z,769.30
2023-04-02T02:40:31.890Z,801.50
2023-04-02T02:41:31.836Z,758.40
2023-04-02T02:42:31.837Z,769.10
2023-04-02T02:43:31.806Z,786.00
2023-04-02T02:44:31.791Z,786.20
2023-04-02T02:45:31.841Z,757.90
2023-04-02T02:46:31.827Z,771.70
2023-04-02T02:47:31.816Z,772.60
2023-04-02T02:48:31.735Z,756.10
2023-04-02T02:49:31.723Z,759.60
2023-04-02T02:50:31.804Z,761.50
2023-04-02T02:51:31.710Z,761.40
2023-04-02T02:52:31.702Z,755.10
2023-04-02T02:53:31.688Z,749.40
2023-04-02T02:54:31.684Z,744.50
2023-04-02T02:55:31.740Z,748.10
2023-04-02T02:56:31.692Z,718.50
2023-04-02T02:57:31.748Z,740.90
2023-04-02T02:58:31.636Z,747.90
2023-04-02T02:59:31.652Z,716.60
2023-04-02T03:00:31.653Z,741.60
2023-04-02T03:01:31.640Z,707.70
2023-04-02T03:02:31.653Z,722.40
2023-04-02T03:03:31.773Z,680.20
2023-04-02T03:04:31.557Z,566.90
2023-04-02T03:05:31.596Z,245.20
2023-04-02T03:06:31.539Z,286.20
2023-04-02T03:07:31.530Z,744.50
2023-04-02T03:08:31.528Z,761.90
2023-04-02T03:09:31.496Z,752.00
2023-04-02T03:10:31.528Z,716.60
2023-04-02T03:11:31.498Z,730.60
2023-04-02T03:12:31.530Z,724.90
2023-04-02T03:13:31.489Z,733.40
2023-04-02T03:14:31.442Z,729.30
2023-04-02T03:15:31.505Z,709.70
2023-04-02T03:16:31.423Z,721.70
2023-04-02T03:17:31.444Z,718.40
2023-04-02T03:18:31.394Z,726.50
2023-04-02T03:19:31.377Z,727.50
2023-04-02T03:20:31.478Z,741.80
2023-04-02T03:21:31.371Z,750.80
2023-04-02T03:22:31.356Z,708.80
2023-04-02T03:23:31.346Z,710.60
2023-04-02T03:24:31.349Z,713.50
2023-04-02T03:25:31.370Z,685.30
2023-04-02T03:26:31.313Z,655.20
2023-04-02T03:27:31.316Z,619.30
2023-04-02T03:28:31.272Z,619.80
2023-04-02T03:29:31.322Z,611.50
2023-04-02T03:30:31.315Z,624.10
2023-04-02T03:31:31.300Z,627.70
2023-04-02T03:32:31.289Z,606.10
2023-04-02T03:33:31.241Z,597.10
2023-04-02T03:34:31.197Z,622.90
2023-04-02T03:35:31.251Z,611.40
2023-04-02T03:36:31.188Z,527.70
2023-04-02T03:37:31.186Z,535.20
2023-04-02T03:38:31.168Z,532.30
2023-04-02T03:39:31.167Z,553.90
2023-04-02T03:40:31.198Z,574.80
2023-04-02T03:41:31.136Z,520.10
2023-04-02T03:42:31.130Z,524.90
2023-04-02T03:43:31.108Z,546.30
2023-04-02T03:44:31.114Z,533.80
2023-04-02T03:45:31.139Z,547.80
2023-04-02T03:46:31.099Z,536.50
2023-04-02T03:47:31.120Z,538.30
2023-04-02T03:48:31.048Z,552.10
2023-04-02T03:49:31.045Z,534.30
2023-04-02T03:50:31.094Z,538.30
2023-04-02T03:51:31.025Z,593.40
2023-04-02T03:52:31.018Z,519.70
2023-04-02T03:53:31.012Z,560.00
2023-04-02T03:54:30.979Z,538.20
2023-04-02T03:55:31.018Z,592.80
2023-04-02T03:56:30.964Z,553.90
2023-04-02T03:57:31.015Z,529.70
2023-04-02T03:58:30.944Z,545.50
2023-04-02T03:59:30.966Z,532.00
2023-04-02T04:00:30.966Z,559.60
2023-04-02T04:01:30.902Z,528.10
2023-04-02T04:02:30.970Z,557.10
2023-04-02T04:03:30.897Z,557.50
2023-04-02T04:04:30.950Z,592.10
2023-04-02T04:05:30.907Z,550.60
2023-04-02T04:06:30.854Z,591.00
2023-04-02T04:07:30.834Z,592.00
2023-04-02T04:08:30.830Z,544.20
2023-04-02T04:09:30.811Z,532.50
2023-04-02T04:10:30.848Z,593.90
2023-04-02T04:11:30.828Z,614.10
2023-04-02T04:12:30.789Z,598.90
2023-04-02T04:13:30.764Z,577.00
2023-04-02T04:14:30.767Z,793.90
2023-04-02T04:15:30.780Z,768.50
2023-04-02T04:16:30.762Z,462.30
2023-04-02T04:17:30.752Z,837.40
2023-04-02T04:18:30.718Z,736.90
2023-04-02T04:19:30.707Z,677.30
2023-04-02T04:20:30.729Z,381.40
2023-04-02T04:21:30.692Z,362.90
2023-04-02T04:22:30.716Z,367.20
2023-04-02T04:23:30.724Z,340.50
2023-04-02T04:24:30.639Z,328.30
2023-04-02T04:25:30.722Z,306.80
2023-04-02T04:26:30.623Z,360.40
2023-04-02T04:27:30.597Z,654.30
2023-04-02T04:28:30.608Z,797.20
2023-04-02T04:29:30.597Z,625.70
2023-04-02T04:30:30.619Z,783.70
2023-04-02T04:31:30.611Z,869.80
2023-04-02T04:32:30.581Z,850.00
2023-04-02T04:33:30.539Z,735.70
2023-04-02T04:34:30.539Z,754.70
2023-04-02T04:35:30.609Z,777.30
2023-04-02T04:36:30.508Z,732.20
2023-04-02T04:37:30.488Z,751.40
2023-04-02T04:38:30.487Z,434.80
2023-04-02T04:39:30.470Z,347.40
2023-04-02T04:40:30.516Z,1129.80
2023-04-02T04:41:30.457Z,610.50
2023-04-02T04:42:30.452Z,889.70
2023-04-02T04:43:30.436Z,979.40
2023-04-02T04:44:30.434Z,1010.10
2023-04-02T04:45:30.455Z,1007.10
2023-04-02T04:46:30.487Z,941.60
2023-04-02T04:47:30.408Z,980.80
2023-04-02T04:48:30.376Z,984.10
2023-04-02T04:49:30.365Z,1003.90
2023-04-02T04:50:30.386Z,1033.80
2023-04-02T04:51:30.334Z,852.10
2023-04-02T04:52:30.324Z,864.70
2023-04-02T04:53:30.321Z,775.20
2023-04-02T04:54:30.306Z,759.00
2023-04-02T04:55:30.347Z,838.40
2023-04-02T04:56:30.287Z,828.20
2023-04-02T04:57:30.309Z,831.80
2023-04-02T04:58:30.259Z,936.50
2023-04-02T04:59:30.274Z,406.20
2023-04-02T05:00:30.303Z,859.10
2023-04-02T05:01:30.274Z,1043.70
2023-04-02T05:02:30.286Z,1065.60
2023-04-02T05:03:30.233Z,1193.80
2023-04-02T05:04:30.324Z,429.00
2023-04-02T05:05:30.223Z,1105.50
2023-04-02T05:06:30.170Z,678.90
2023-04-02T05:07:30.175Z,994.30
2023-04-02T05:08:30.145Z,1214.30
2023-04-02T05:09:30.150Z,1156.90
2023-04-02T05:10:30.194Z,1886.10
2023-04-02T05:11:30.117Z,1232.90
2023-04-02T05:12:30.081Z,1106.10
2023-04-02T05:13:30.070Z,1532.40
2023-04-02T05:14:30.082Z,1504.20
2023-04-02T05:15:30.149Z,1999.90
2023-04-02T05:16:30.127Z,1999.90
2023-04-02T05:17:30.069Z,1999.90
2023-04-02T05:18:30.030Z,1999.90
2023-04-02T05:19:30.020Z,1999.90
2023-04-02T05:20:30.059Z,1999.90
2023-04-02T05:21:30.003Z,1382.60
2023-04-02T05:22:29.980Z,1376.90
2023-04-02T05:23:29.966Z,1350.00
2023-04-02T05:24:29.970Z,959.60
2023-04-02T05:25:29.957Z,579.70
2023-04-02T05:26:29.996Z,722.50
2023-04-02T05:27:29.934Z,1320.40
2023-04-02T05:28:29.930Z,1999.90
2023-04-02T05:29:29.911Z,1999.90
2023-04-02T05:30:29.942Z,930.30
2023-04-02T05:31:29.990Z,1999.90
2023-04-02T05:32:29.874Z,450.10
2023-04-02T05:33:29.891Z,1999.90
2023-04-02T05:34:29.857Z,1999.90
2023-04-02T05:35:29.858Z,516.10
2023-04-02T05:36:29.882Z,1999.90
2023-04-02T05:37:29.831Z,1999.90
2023-04-02T05:38:29.805Z,1999.90
2023-04-02T05:39:29.778Z,1999.90
2023-04-02T05:40:29.776Z,1999.90
2023-04-02T05:41:29.800Z,1999.90
2023-04-02T05:42:29.767Z,1999.90
2023-04-02T05:43:29.750Z,1999.90
2023-04-02T05:44:29.746Z,1999.90
2023-04-02T05:45:29.726Z,1999.90
2023-04-02T05:46:29.853Z,1999.90
2023-04-02T05:47:29.751Z,1999.90
2023-04-02T05:48:29.691Z,1999.90
2023-04-02T05:49:29.689Z,1999.90
2023-04-02T05:50:29.686Z,1999.90
2023-04-02T05:51:29.711Z,1999.90
2023-04-02T05:52:29.636Z,1999.90
2023-04-02T05:53:29.626Z,1999.90
2023-04-02T05:54:29.610Z,1999.90
2023-04-02T05:55:29.611Z,1999.90
2023-04-02T05:56:29.656Z,1999.90
2023-04-02T05:57:42.712Z,1999.90
2023-04-02T05:58:36.169Z,1999.90
2023-04-02T05:59:30.562Z,1999.90
2023-04-02T06:00:29.641Z,1999.90
2023-04-02T06:01:29.572Z,1999.90
2023-04-02T06:02:29.702Z,1999.90
2023-04-02T06:03:29.582Z,1999.90
2023-04-02T06:04:29.509Z,1999.90
2023-04-02T06:05:29.474Z,1999.90
2023-04-02T06:06:29.511Z,1999.90
2023-04-02T06:07:29.475Z,1999.90
2023-04-02T06:08:29.451Z,1999.90
2023-04-02T06:09:29.443Z,1999.90
2023-04-02T06:10:29.459Z,1999.90
2023-04-02T06:11:29.473Z,1999.90
2023-04-02T06:12:29.405Z,1999.90
2023-04-02T06:13:29.399Z,1999.90
2023-04-02T06:14:29.390Z,1999.90
2023-04-02T06:15:29.379Z,1999.90
2023-04-02T06:16:29.483Z,1999.90
2023-04-02T06:17:29.380Z,1999.90
2023-04-02T06:18:29.340Z,1999.90
2023-04-02T06:19:29.317Z,1999.90
2023-04-02T06:20:29.400Z,1999.90
2023-04-02T06:21:29.340Z,1999.90
2023-04-02T06:22:29.301Z,1999.90
2023-04-02T06:23:29.292Z,1999.90
2023-04-02T06:24:29.273Z,1999.90
2023-04-02T06:25:29.278Z,1999.90
2023-04-02T06:26:29.299Z,1999.90
2023-04-02T06:27:29.229Z,1999.90
2023-04-02T06:28:29.230Z,1999.90
2023-04-02T06:29:29.208Z,1999.90
2023-04-02T06:30:29.200Z,1999.90
2023-04-02T06:31:29.250Z,1999.90
2023-04-02T06:32:29.202Z,1999.90
2023-04-02T06:33:29.172Z,1999.90
2023-04-02T06:34:29.151Z,1999.90
2023-04-02T06:35:29.141Z,1999.90
2023-04-02T06:36:29.192Z,1999.90
2023-04-02T06:37:29.154Z,1999.90
2023-04-02T06:38:29.122Z,1999.90
2023-04-02T06:39:29.140Z,1999.90
2023-04-02T06:40:29.127Z,1999.90
2023-04-02T06:41:29.180Z,1999.90
2023-04-02T06:42:29.085Z,1999.90
2023-04-02T06:43:29.061Z,1999.90
2023-04-02T06:44:29.071Z,1999.90
2023-04-02T06:45:29.047Z,1999.90
2023-04-02T06:46:29.097Z,1999.90
2023-04-02T06:47:29.052Z,1999.90
2023-04-02T06:48:29.007Z,1999.90
2023-04-02T06:49:28.984Z,1999.90
2023-04-02T06:50:28.988Z,1999.90
2023-04-02T06:51:29.039Z,1999.90
2023-04-02T06:52:28.959Z,1999.90
2023-04-02T06:53:28.939Z,1999.90
2023-04-02T06:54:28.941Z,1999.90
2023-04-02T06:55:29.013Z,1999.90
2023-04-02T06:56:28.962Z,1999.90
2023-04-02T06:57:28.916Z,1999.90
2023-04-02T06:58:28.889Z,1999.90
2023-04-02T06:59:28.888Z,1999.90
2023-04-02T07:00:28.869Z,1999.90
2023-04-02T07:01:28.932Z,1999.90
2023-04-02T07:02:28.890Z,1999.90
2023-04-02T07:03:28.826Z,1999.90
2023-04-02T07:04:28.823Z,1999.90
2023-04-02T07:05:28.811Z,1999.90
2023-04-02T07:06:28.854Z,1999.90
2023-04-02T07:07:28.777Z,1999.90
2023-04-02T07:08:28.772Z,1999.90
2023-04-02T07:09:28.770Z,1999.90
2023-04-02T07:10:28.752Z,1999.90
2023-04-02T07:11:28.778Z,1999.90
2023-04-02T07:12:28.724Z,1999.90
2023-04-02T07:13:28.709Z,1999.90
2023-04-02T07:14:28.701Z,1999.90
2023-04-02T07:15:28.699Z,1999.90
2023-04-02T07:16:28.794Z,1999.90
2023-04-02T07:17:28.745Z,1999.90
2023-04-02T07:18:28.660Z,1999.90
2023-04-02T07:19:28.640Z,1999.90
2023-04-02T07:20:28.649Z,1999.90
2023-04-02T07:21:28.681Z,1999.90
2023-04-02T07:22:28.631Z,1999.90
2023-04-02T07:23:28.637Z,1999.90
2023-04-02T07:24:28.586Z,1999.90
2023-04-02T07:25:28.594Z,1999.90
2023-04-02T07:26:28.621Z,1999.90
2023-04-02T07:27:28.575Z,1999.90
2023-04-02T07:28:28.586Z,1999.90
2023-04-02T07:29:28.627Z,1999.90
2023-04-02T07:30:28.549Z,1999.90
2023-04-02T07:31:28.727Z,1999.90
2023-04-02T07:32:28.648Z,1999.90
2023-04-02T07:33:28.563Z,1999.90
2023-04-02T07:34:28.657Z,1999.90
2023-04-02T07:35:28.464Z,1999.90
2023-04-02T07:36:28.569Z,1999.90
2023-04-02T07:37:28.453Z,651.70
2023-04-02T07:38:28.441Z,943.80
2023-04-02T07:39:28.425Z,1999.90
2023-04-02T07:40:28.408Z,1999.90
2023-04-02T07:41:28.434Z,1999.90
2023-04-02T07:42:28.392Z,1999.90
2023-04-02T07:43:28.384Z,1999.90
2023-04-02T07:44:28.391Z,1999.90
2023-04-02T07:45:28.373Z,1999.90
2023-04-02T07:46:28.442Z,1999.90
2023-04-02T07:47:28.380Z,1999.90
2023-04-02T07:48:28.345Z,1999.90
2023-04-02T07:49:28.297Z,1999.90
2023-04-02T07:50:28.336Z,1999.90
2023-04-02T07:51:28.306Z,32.40
2023-04-02T07:52:28.321Z,54.90
2023-04-02T07:53:28.273Z,1999.90
2023-04-02T07:54:28.264Z,1999.90
2023-04-02T07:55:28.246Z,1999.90
2023-04-02T07:56:28.232Z,1259.30
2023-04-02T07:57:28.292Z,1516.30
2023-04-02T07:58:28.192Z,1677.80
2023-04-02T07:59:28.173Z,1153.60
2023-04-02T08:00:28.180Z,20.20
2023-04-02T08:01:28.176Z,21.70
2023-04-02T08:02:28.306Z,20.70
2023-04-02T08:03:28.218Z,20.70
2023-04-02T08:04:28.153Z,189.00
2023-04-02T08:05:28.120Z,16.70
2023-04-02T08:06:28.123Z,17.60
2023-04-02T08:07:28.130Z,136.20
2023-04-02T08:08:28.098Z,17.30
2023-04-02T08:09:28.113Z,21.60
2023-04-02T08:10:28.071Z,78.30
2023-04-02T08:11:29.669Z,93.50
2023-04-02T08:12:28.082Z,19.90
2023-04-02T08:13:28.041Z,18.80
2023-04-02T08:14:28.023Z,109.30
2023-04-02T08:15:28.014Z,21.20
2023-04-02T08:16:28.028Z,21.50
2023-04-02T08:17:28.077Z,63.40
2023-04-02T08:18:27.990Z,185.90
2023-04-02T08:19:27.972Z,52.60
2023-04-02T08:20:27.944Z,22.50
2023-04-02T08:21:27.985Z,16.90
2023-04-02T08:22:27.980Z,20.00
2023-04-02T08:23:27.914Z,20.00
2023-04-02T08:24:27.903Z,19.50
2023-04-02T08:25:27.897Z,17.90
2023-04-02T08:26:27.874Z,17.60
2023-04-02T08:27:27.918Z,16.70
2023-04-02T08:28:27.870Z,31.60
2023-04-02T08:29:27.869Z,28.70
2023-04-02T08:30:27.851Z,27.80
2023-04-02T08:31:27.976Z,25.30
2023-04-02T08:32:27.871Z,11.90
2023-04-02T08:33:27.858Z,15.30
2023-04-02T08:34:27.790Z,43.00
2023-04-02T08:35:27.797Z,46.10
2023-04-02T08:36:27.785Z,24.50
2023-04-02T08:37:27.813Z,29.00
2023-04-02T08:38:27.765Z,17.70
2023-04-02T08:39:27.742Z,63.60
2023-04-02T08:40:27.735Z,40.40
2023-04-02T08:41:27.832Z,66.50
2023-04-02T08:42:27.747Z,50.50
2023-04-02T08:43:27.767Z,14.20
2023-04-02T08:44:27.692Z,25.50
2023-04-02T08:45:27.682Z,15.40
2023-04-02T08:46:27.708Z,57.70
2023-04-02T08:47:27.699Z,56.70
2023-04-02T08:48:27.633Z,51.10
2023-04-02T08:49:27.636Z,53.20
2023-04-02T08:50:27.629Z,41.30
2023-04-02T08:51:27.586Z,14.30
2023-04-02T08:52:27.620Z,26.60
2023-04-02T08:53:27.586Z,17.50
2023-04-02T08:54:28.093Z,29.90
2023-04-02T08:55:27.572Z,63.30
2023-04-02T08:56:27.554Z,62.70
2023-04-02T08:57:27.649Z,41.10
2023-04-02T08:58:27.534Z,30.70
2023-04-02T08:59:27.567Z,17.70
2023-04-02T09:00:27.508Z,54.00
2023-04-02T09:01:27.570Z,70.20
2023-04-02T09:02:27.545Z,49.90
2023-04-02T09:03:27.667Z,60.70
2023-04-02T09:04:27.482Z,50.00
2023-04-02T09:05:27.448Z,41.20
2023-04-02T09:06:27.424Z,53.00
2023-04-02T09:07:27.475Z,43.90
2023-04-02T09:08:27.412Z,36.00
2023-04-02T09:09:27.395Z,51.90
2023-04-02T09:10:27.397Z,35.40
2023-04-02T09:11:27.473Z,33.90
2023-04-02T09:12:27.413Z,22.80
2023-04-02T09:13:27.354Z,9.60
2023-04-02T09:14:27.370Z,22.80
2023-04-02T09:15:27.322Z,26.40
2023-04-02T09:16:27.407Z,12.20
2023-04-02T09:17:27.376Z,18.90
2023-04-02T09:18:27.323Z,39.20
2023-04-02T09:19:27.267Z,13.50
2023-04-02T09:20:27.255Z,24.70
2023-04-02T09:21:27.251Z,36.40
2023-04-02T09:22:27.278Z,11.20
2023-04-02T09:23:27.227Z,11.40
2023-04-02T09:24:27.214Z,11.40
2023-04-02T09:25:27.230Z,18.60
2023-04-02T09:26:27.218Z,36.10
2023-04-02T09:27:27.232Z,17.20
2023-04-02T09:28:27.194Z,16.00
2023-04-02T09:29:27.167Z,21.80
2023-04-02T09:30:27.136Z,25.60
2023-04-02T09:31:27.170Z,28.70
2023-04-02T09:32:27.183Z,16.00
2023-04-02T09:33:27.117Z,19.20
2023-04-02T09:34:27.105Z,14.20
2023-04-02T09:35:27.280Z,15.00
2023-04-02T09:36:27.129Z,25.00
2023-04-02T09:37:27.142Z,23.30
2023-04-02T09:38:27.054Z,21.30
2023-04-02T09:39:27.052Z,28.80
2023-04-02T09:40:27.054Z,21.30
2023-04-02T09:41:27.038Z,31.80
2023-04-02T09:42:27.072Z,25.90
2023-04-02T09:43:27.010Z,45.90
2023-04-02T09:44:26.994Z,39.50
2023-04-02T09:45:26.981Z,42.60
2023-04-02T09:46:26.983Z,43.70
2023-04-02T09:47:27.035Z,37.80
2023-04-02T09:48:26.945Z,34.70
2023-04-02T09:49:26.951Z,20.50
2023-04-02T09:50:26.917Z,21.40
2023-04-02T09:51:26.933Z,39.00
2023-04-02T09:52:26.930Z,23.90
2023-04-02T09:53:26.896Z,11.70
2023-04-02T09:54:26.892Z,22.60
2023-04-02T09:55:26.874Z,30.20
2023-04-02T09:56:26.852Z,32.00
2023-04-02T09:57:26.926Z,23.70
2023-04-02T09:58:26.815Z,28.20
2023-04-02T09:59:26.835Z,24.70
2023-04-02T10:00:41.572Z,9.80
2023-04-02T10:01:27.872Z,26.60
2023-04-02T10:02:26.875Z,10.80
2023-04-02T10:03:26.772Z,26.20
2023-04-02T10:04:26.826Z,12.40
2023-04-02T10:05:39.306Z,28.00
2023-04-02T10:06:27.725Z,31.80
2023-04-02T10:07:26.791Z,14.20
2023-04-02T10:08:26.713Z,43.00
2023-04-02T10:09:26.708Z,34.70
2023-04-02T10:10:26.694Z,35.50
2023-04-02T10:11:30.914Z,42.80
2023-04-02T10:12:27.717Z,39.20
2023-04-02T10:13:26.654Z,43.30
2023-04-02T10:14:26.658Z,44.30
2023-04-02T10:15:26.681Z,45.00
2023-04-02T10:16:27.189Z,23.90
2023-04-02T10:17:26.706Z,39.00
2023-04-02T10:18:26.620Z,22.10
2023-04-02T10:19:26.606Z,30.90
2023-04-02T10:20:26.592Z,35.70
2023-04-02T10:21:26.588Z,19.50
2023-04-02T10:22:26.606Z,33.80
2023-04-02T10:23:26.556Z,34.40
2023-04-02T10:24:26.537Z,36.70
2023-04-02T10:25:26.529Z,37.60
2023-04-02T10:26:26.527Z,35.20
2023-04-02T10:27:26.564Z,14.30
2023-04-02T10:28:26.476Z,34.70
2023-04-02T10:29:26.482Z,34.50
2023-04-02T10:30:26.483Z,37.20
2023-04-02T10:31:26.500Z,34.90
2023-04-02T10:32:26.558Z,36.90
2023-04-02T10:33:26.470Z,39.40
2023-04-02T10:34:26.420Z,23.40
2023-04-02T10:35:26.456Z,31.20
2023-04-02T10:36:26.404Z,38.50
2023-04-02T10:37:26.449Z,12.20
2023-04-02T10:38:26.371Z,32.50
2023-04-02T10:39:26.355Z,41.90
2023-04-02T10:40:26.345Z,41.90
2023-04-02T10:41:26.351Z,46.40
2023-04-02T10:42:26.331Z,45.90
2023-04-02T10:43:26.388Z,50.40
2023-04-02T10:44:26.346Z,15.40
2023-04-02T10:45:26.301Z,48.60
2023-04-02T10:46:26.324Z,34.80
2023-04-02T10:47:26.287Z,50.50
2023-04-02T10:48:26.321Z,45.20
2023-04-02T10:49:26.339Z,41.20
2023-04-02T10:50:26.251Z,38.40
2023-04-02T10:51:26.227Z,36.20
2023-04-02T10:52:26.222Z,24.30
2023-04-02T10:53:26.268Z,25.00
2023-04-02T10:54:26.193Z,15.20
2023-04-02T10:55:26.193Z,26.50
2023-04-02T10:56:26.175Z,21.30
2023-04-02T10:57:26.236Z,12.80
2023-04-02T10:58:26.228Z,26.90
2023-04-02T10:59:26.194Z,22.80
2023-04-02T11:00:26.111Z,18.50
2023-04-02T11:01:26.146Z,23.40
2023-04-02T11:02:26.230Z,21.00
2023-04-02T11:03:26.275Z,24.10
2023-04-02T11:04:26.086Z,23.20
2023-04-02T11:05:26.074Z,26.20
2023-04-02T11:06:26.060Z,25.40
2023-04-02T11:07:26.041Z,25.50
2023-04-02T11:08:26.092Z,22.40
2023-04-02T11:09:26.009Z,8.60
2023-04-02T11:10:26.033Z,12.20
2023-04-02T11:11:25.999Z,10.20
2023-04-02T11:12:26.001Z,9.80
2023-04-02T11:13:26.029Z,10.20
2023-04-02T11:14:25.959Z,9.70
2023-04-02T11:15:25.943Z,9.50
2023-04-02T11:16:25.966Z,9.00
2023-04-02T11:17:26.006Z,8.00
2023-04-02T11:18:26.009Z,8.90
2023-04-02T11:19:25.940Z,9.40
2023-04-02T11:20:25.912Z,9.40
2023-04-02T11:21:25.901Z,9.60
2023-04-02T11:22:25.872Z,9.10
2023-04-02T11:23:25.922Z,8.10
2023-04-02T11:24:25.874Z,7.70
2023-04-02T11:25:25.841Z,7.30
2023-04-02T11:26:25.806Z,7.70
2023-04-02T11:27:25.822Z,8.20
2023-04-02T11:28:25.866Z,8.10
2023-04-02T11:29:25.780Z,8.40
2023-04-02T11:30:25.780Z,7.80
2023-04-02T11:31:25.814Z,8.70
2023-04-02T11:32:25.791Z,8.40
2023-04-02T11:33:35.843Z,9.00
2023-04-02T11:34:26.760Z,8.80
2023-04-02T11:35:25.712Z,8.20
2023-04-02T11:36:25.755Z,8.60
2023-04-02T11:37:25.707Z,8.20
2023-04-02T11:38:25.761Z,8.40
2023-04-02T11:39:25.697Z,9.10
2023-04-02T11:40:25.660Z,28.50
2023-04-02T11:41:25.654Z,25.90
2023-04-02T11:42:25.651Z,24.70
2023-04-02T11:43:25.680Z,21.70
2023-04-02T11:44:25.622Z,18.60
2023-04-02T11:45:25.612Z,15.90
2023-04-02T11:46:25.641Z,16.30
2023-04-02T11:47:25.647Z,17.40
2023-04-02T11:48:25.612Z,18.50
2023-04-02T11:49:25.581Z,19.10
2023-04-02T11:50:25.559Z,19.90
2023-04-02T11:51:25.554Z,20.00
2023-04-02T11:52:25.530Z,20.30
2023-04-02T11:53:25.561Z,18.40
2023-04-02T11:54:25.485Z,21.10
2023-04-02T11:55:25.472Z,21.90
2023-04-02T11:56:25.467Z,25.00
2023-04-02T11:57:25.526Z,27.30
2023-04-02T11:58:25.513Z,29.80
2023-04-02T11:59:25.458Z,29.90
2023-04-02T12:00:25.448Z,34.30
2023-04-02T12:01:25.404Z,34.50
2023-04-02T12:02:25.602Z,36.10
2023-04-02T12:03:25.454Z,38.20
2023-04-02T12:04:25.373Z,32.70
2023-04-02T12:05:25.430Z,30.10
2023-04-02T12:06:25.355Z,33.00
2023-04-02T12:07:25.349Z,34.50
2023-04-02T12:08:25.408Z,32.40
2023-04-02T12:09:25.347Z,33.10
2023-04-02T12:10:25.322Z,36.10
2023-04-02T12:11:25.324Z,33.60
2023-04-02T12:12:25.306Z,30.40
2023-04-02T12:13:25.330Z,34.50
2023-04-02T12:14:25.277Z,34.00
2023-04-02T12:15:25.272Z,34.30
2023-04-02T12:16:25.263Z,32.30
2023-04-02T12:17:25.274Z,32.00
2023-04-02T12:18:25.265Z,33.10
2023-04-02T12:19:25.214Z,34.90
2023-04-02T12:20:25.189Z,35.00
2023-04-02T12:21:25.183Z,34.30
2023-04-02T12:22:25.174Z,34.40
2023-04-02T12:23:25.230Z,34.70
2023-04-02T12:24:25.163Z,36.80
2023-04-02T12:25:25.141Z,38.00
2023-04-02T12:26:25.129Z,35.50
2023-04-02T12:27:25.123Z,37.60
2023-04-02T12:28:25.158Z,34.70
2023-04-02T12:29:25.111Z,34.20
2023-04-02T12:30:25.073Z,33.50
2023-04-02T12:31:25.213Z,31.10
2023-04-02T12:32:25.954Z,29.90